Terminal Aerodrome Forecast
Issued by NWS Wilmington, NC

Home | Current Version | Previous Version | Text Only | Print | Product List | Glossary On
Versions: 1 2 3 4 5 6 7 8 9 10 11 12 13 14 15 16
000
FTUS42 KILM 050627 AAB
TAFILM
TAF AMD
KILM 050627Z 0506/0606 00000KT P6SM SKC
      TEMPO 0509/0512 4SM BR SKC
     FM051300 11005KT P6SM SCT050
     FM051900 14010G15KT P6SM FEW050
     FM060200 15005KT P6SM SCT250=

USA.gov is the U.S. government's official web portal to all federal, state and local government web resources and services.